Time;durP1;ratioP1;P1;durP2;ratioP2;P2;SDS_P1;SDS_P2;PMS_P1;PMS_P2;Temp;Humidity;BMP_temperature;BMP_pressure;BME280_temperature;BME280_humidity;BME280_pressure;Samples;Min_cycle;Max_cycle;Signal;HPM_P1;HPM_P2
2021/03/07 00:01:07;;;;;;;15.70;6.22;;;;;;;-0.65;57.70;101055.08;1708618;84;21135;-60
2021/03/07 00:03:35;;;;;;;14.90;5.47;;;;;;;-0.63;57.73;101060.34;1708589;84;21374;-61
2021/03/07 00:06:03;;;;;;;24.32;7.33;;;;;;;-0.63;57.79;101049.58;1708475;84;21986;-61
2021/03/07 00:08:39;;;;;;;15.43;5.55;;;;;;;-0.67;57.79;101043.53;1708649;83;21409;-62
2021/03/07 00:11:09;;;;;;;19.40;6.15;;;;;;;-0.70;57.98;101037.51;1708273;84;21281;-60
2021/03/07 00:13:36;;;;;;;19.62;7.83;;;;;;;-0.70;58.06;101041.06;1708544;84;21393;-61
2021/03/07 00:16:04;;;;;;;15.30;6.90;;;;;;;-0.75;58.16;101033.80;1708645;83;21313;-60
2021/03/07 00:18:32;;;;;;;11.05;4.85;;;;;;;-0.75;58.26;101028.91;1708556;83;21288;-61
2021/03/07 00:20:59;;;;;;;10.13;4.75;;;;;;;-0.71;58.38;101033.09;1708545;84;21170;-61
2021/03/07 00:23:27;;;;;;;10.78;4.70;;;;;;;-0.69;58.26;101028.47;1718043;82;21345;-61
2021/03/07 00:25:54;;;;;;;13.32;5.30;;;;;;;-0.70;58.31;101027.60;1722093;82;21253;-60
2021/03/07 00:28:22;;;;;;;9.85;3.62;;;;;;;-0.70;58.30;101018.67;1716722;83;21571;-62
2021/03/07 00:30:49;;;;;;;10.88;4.47;;;;;;;-0.75;58.27;101025.73;1716629;83;21908;-61
2021/03/07 00:33:16;;;;;;;10.30;4.10;;;;;;;-0.80;58.36;101014.92;1716630;83;21167;-61
2021/03/07 00:35:44;;;;;;;9.03;3.37;;;;;;;-0.83;58.49;101016.48;1716582;82;21970;-60
2021/03/07 00:38:11;;;;;;;10.18;4.08;;;;;;;-0.83;58.55;101004.38;1682547;84;21419;-61
2021/03/07 00:40:39;;;;;;;9.33;3.83;;;;;;;-0.83;58.60;101002.55;1682457;84;21318;-62
2021/03/07 00:43:06;;;;;;;8.78;3.85;;;;;;;-0.83;58.68;100989.10;1682352;84;21295;-61
2021/03/07 00:45:33;;;;;;;7.87;4.00;;;;;;;-0.79;58.68;100986.56;1682561;85;21982;-61
2021/03/07 00:48:01;;;;;;;10.48;5.37;;;;;;;-0.78;58.65;100978.87;1682628;84;21332;-61
2021/03/07 00:50:30;;;;;;;9.78;4.97;;;;;;;-0.76;58.65;100972.89;1682552;84;21291;-61
2021/03/07 00:52:57;;;;;;;10.03;5.80;;;;;;;-0.73;58.66;100969.98;1682507;85;21229;-61
2021/03/07 00:55:26;;;;;;;10.75;5.62;;;;;;;-0.77;58.67;100963.58;1682627;85;21168;-61
2021/03/07 00:57:53;;;;;;;11.93;4.87;;;;;;;-0.81;58.77;100958.91;1682581;85;21438;-60
2021/03/07 01:00:26;;;;;;;10.85;5.42;;;;;;;-0.82;58.86;100958.54;1682627;85;21448;-60
2021/03/07 01:02:54;;;;;;;14.67;5.80;;;;;;;-0.85;58.96;100952.52;1682625;84;21423;-60
2021/03/07 01:05:29;;;;;;;14.75;6.12;;;;;;;-0.89;59.12;100949.68;1682645;84;21176;-60
2021/03/07 01:07:57;;;;;;;14.68;6.67;;;;;;;-0.89;59.23;100952.37;1682577;85;21352;-60
2021/03/07 01:10:29;;;;;;;14.80;6.85;;;;;;;-0.89;59.27;100949.20;1682715;84;21396;-61
2021/03/07 01:12:57;;;;;;;12.95;6.17;;;;;;;-0.87;59.35;100949.94;1682553;84;21199;-60
2021/03/07 01:15:28;;;;;;;15.43;7.42;;;;;;;-0.86;59.40;100936.01;1682564;85;21422;-60
2021/03/07 01:17:58;;;;;;;12.40;6.53;;;;;;;-0.84;59.39;100927.34;1682650;84;21161;-61
2021/03/07 01:20:26;;;;;;;11.10;6.58;;;;;;;-0.84;59.46;100922.81;1682661;85;21172;-60
2021/03/07 01:22:55;;;;;;;13.40;6.60;;;;;;;-0.79;59.44;100919.79;1682567;85;21433;-62
2021/03/07 01:25:27;;;;;;;11.83;6.17;;;;;;;-0.80;59.42;100912.70;1682635;85;21212;-60
2021/03/07 01:27:54;;;;;;;10.95;5.75;;;;;;;-0.80;59.42;100914.03;1682696;85;21283;-61
2021/03/07 01:30:23;;;;;;;14.70;6.83;;;;;;;-0.83;59.49;100907.54;1682623;85;21460;-62
2021/03/07 01:32:51;;;;;;;13.60;6.30;;;;;;;-0.89;59.58;100904.81;1682667;85;21371;-62
2021/03/07 01:35:19;;;;;;;12.47;6.05;;;;;;;-0.93;59.70;100896.59;1678549;85;21196;-60
2021/03/07 01:37:47;;;;;;;11.05;5.20;;;;;;;-0.96;59.78;100893.64;1668070;85;21455;-61
2021/03/07 01:40:23;;;;;;;13.03;5.08;;;;;;;-1.00;59.95;100900.22;1667981;86;21189;-60
2021/03/07 01:42:54;;;;;;;9.38;5.00;;;;;;;-1.03;60.06;100899.09;1668087;86;21397;-62
2021/03/07 01:45:29;;;;;;;9.90;4.75;;;;;;;-1.06;60.23;100895.77;1668034;86;21523;-61
2021/03/07 01:47:59;;;;;;;8.63;4.15;;;;;;;-1.06;60.37;100891.25;1667609;85;21399;-59
2021/03/07 01:50:29;;;;;;;9.13;4.65;;;;;;;-1.05;60.39;100890.77;1667609;86;21427;-61
2021/03/07 01:52:56;;;;;;;9.68;4.35;;;;;;;-1.08;60.43;100886.47;1667412;86;21193;-61
2021/03/07 01:55:30;;;;;;;6.85;3.55;;;;;;;-1.12;60.58;100880.94;1667447;86;21157;-61
2021/03/07 01:58:24;;;;;;;6.83;3.40;;;;;;;-1.13;60.73;100886.43;1667402;85;21181;-62
2021/03/07 02:00:52;;;;;;;7.15;3.77;;;;;;;-1.12;60.81;100876.91;1667428;86;21878;-60
2021/03/07 02:03:19;;;;;;;8.60;4.17;;;;;;;-1.11;60.86;100869.70;1667509;85;21236;-61
2021/03/07 02:05:47;;;;;;;11.15;4.10;;;;;;;-1.11;60.92;100860.28;1667444;86;21384;-60
2021/03/07 02:08:15;;;;;;;8.20;3.87;;;;;;;-1.11;60.95;100858.94;1667457;86;21415;-60
2021/03/07 02:10:56;;;;;;;8.50;3.72;;;;;;;-1.11;60.99;100861.63;1667484;85;21452;-61
2021/03/07 02:13:31;;;;;;;8.35;3.60;;;;;;;-1.11;61.06;100859.80;1667454;85;21886;-61
2021/03/07 02:16:00;;;;;;;5.80;3.08;;;;;;;-1.08;60.98;100850.66;1667557;86;21409;-61
2021/03/07 02:18:28;;;;;;;7.12;3.40;;;;;;;-1.10;60.94;100851.25;1666515;85;21161;-61
2021/03/07 02:21:04;;;;;;;7.67;3.55;;;;;;;-1.11;60.96;100842.33;1666492;85;21180;-62
2021/03/07 02:23:35;;;;;;;7.30;3.15;;;;;;;-1.13;60.88;100838.89;1667633;85;21208;-61
2021/03/07 02:26:03;;;;;;;5.25;2.45;;;;;;;-1.14;60.89;100834.97;1644426;86;21169;-61
2021/03/07 02:28:31;;;;;;;4.85;2.92;;;;;;;-1.15;60.90;100834.59;1667469;85;21400;-61
2021/03/07 02:30:58;;;;;;;5.33;2.98;;;;;;;-1.16;60.87;100824.33;1667444;86;21388;-60
2021/03/07 02:33:33;;;;;;;6.17;3.10;;;;;;;-1.13;60.80;100822.76;1667399;86;21924;-61
2021/03/07 02:36:15;;;;;;;7.33;3.30;;;;;;;-1.11;60.72;100821.30;1634187;85;21340;-61
2021/03/07 02:38:44;;;;;;;6.12;2.87;;;;;;;-1.08;60.59;100817.90;1685603;83;21187;-61
2021/03/07 02:41:12;;;;;;;7.35;3.17;;;;;;;-1.10;60.43;100809.58;1648571;85;21860;-61
2021/03/07 02:43:45;;;;;;;7.67;2.95;;;;;;;-1.07;60.41;100806.17;1685549;85;21467;-61
2021/03/07 02:46:16;;;;;;;4.25;2.30;;;;;;;-1.06;60.23;100801.66;1648590;85;21428;-61
2021/03/07 02:48:55;;;;;;;7.20;2.98;;;;;;;-1.04;60.10;100789.81;1685507;83;21403;-61
2021/03/07 02:51:28;;;;;;;6.03;2.98;;;;;;;-1.00;59.97;100793.98;1648587;87;21590;-62
2021/03/07 02:53:58;;;;;;;7.65;2.95;;;;;;;-1.00;59.81;100783.23;1671767;85;21419;-62
2021/03/07 02:56:28;;;;;;;7.70;3.05;;;;;;;-0.99;59.78;100776.88;1685565;84;21399;-62
2021/03/07 02:59:00;;;;;;;6.25;2.58;;;;;;;-0.98;59.71;100778.59;1685469;83;21462;-61
2021/03/07 03:01:28;;;;;;;5.53;2.87;;;;;;;-0.93;59.56;100778.25;1685296;83;21864;-61
2021/03/07 03:03:56;;;;;;;6.65;3.42;;;;;;;-0.93;59.45;100773.36;1685665;85;21848;-60
2021/03/07 03:06:24;;;;;;;5.53;2.90;;;;;;;-0.93;59.35;100772.02;1685659;84;21324;-60
2021/03/07 03:08:53;;;;;;;5.70;3.20;;;;;;;-0.93;59.31;100770.67;1685583;85;21571;-61
2021/03/07 03:11:23;;;;;;;6.95;3.72;;;;;;;-0.91;59.18;100767.38;1685577;83;21298;-61
2021/03/07 03:13:51;;;;;;;6.87;3.37;;;;;;;-0.93;59.13;100763.45;1685505;85;21415;-59
2021/03/07 03:16:24;;;;;;;5.80;3.37;;;;;;;-0.92;59.07;100756.25;1648531;87;21166;-59
2021/03/07 03:18:53;;;;;;;8.05;3.50;;;;;;;-0.98;58.99;100755.73;1685510;85;21473;-60
2021/03/07 03:21:20;;;;;;;8.25;3.40;;;;;;;-0.98;59.02;100753.05;1648555;87;21180;-62
2021/03/07 03:23:48;;;;;;;8.90;4.20;;;;;;;-0.94;58.97;100743.41;1685672;83;21395;-59
2021/03/07 03:26:20;;;;;;;6.05;3.05;;;;;;;-0.92;58.80;100738.77;1648551;85;21875;-60
2021/03/07 03:28:48;;;;;;;7.53;3.65;;;;;;;-0.92;58.68;100734.73;1685647;85;21455;-60
2021/03/07 03:31:15;;;;;;;9.33;3.42;;;;;;;-0.91;58.67;100729.23;1648478;85;21185;-61
2021/03/07 03:33:43;;;;;;;7.17;3.60;;;;;;;-0.91;58.56;100715.79;1685428;85;21642;-61
2021/03/07 03:36:12;;;;;;;11.38;3.58;;;;;;;-0.93;58.50;100710.16;1657059;85;21169;-63
2021/03/07 03:38:45;;;;;;;8.20;3.45;;;;;;;-0.93;58.54;100710.16;1668937;85;21526;-61
2021/03/07 03:41:12;;;;;;;12.40;3.87;;;;;;;-0.93;58.44;100702.94;1668767;85;21184;-60
2021/03/07 03:43:42;;;;;;;7.22;3.47;;;;;;;-0.95;58.40;100688.76;1666568;86;21213;-61
2021/03/07 03:46:10;;;;;;;9.85;3.67;;;;;;;-0.97;58.40;100682.15;1677426;85;21486;-61
2021/03/07 03:48:40;;;;;;;6.60;3.42;;;;;;;-0.92;58.34;100688.52;1679654;85;21907;-61
2021/03/07 03:51:09;;;;;;;8.43;3.70;;;;;;;-0.90;58.24;100685.72;1679742;85;21216;-60
2021/03/07 03:53:37;;;;;;;8.43;3.58;;;;;;;-0.93;58.24;100677.39;1713951;83;21847;-62
2021/03/07 03:56:05;;;;;;;7.30;3.65;;;;;;;-0.93;58.27;100680.08;1713886;82;21390;-61
2021/03/07 03:58:39;;;;;;;8.70;3.20;;;;;;;-0.94;58.27;100674.82;1713989;83;21358;-60
2021/03/07 04:01:06;;;;;;;6.30;2.72;;;;;;;-0.96;58.30;100674.45;1713900;83;21917;-60
2021/03/07 04:03:33;;;;;;;9.13;3.42;;;;;;;-0.95;58.27;100661.86;1713917;83;21158;-60
2021/03/07 04:06:01;;;;;;;8.88;3.40;;;;;;;-0.97;58.29;100659.29;1713893;83;21597;-60
2021/03/07 04:08:29;;;;;;;9.25;3.42;;;;;;;-0.96;58.30;100661.49;1713905;83;21158;-61
2021/03/07 04:10:56;;;;;;;10.32;3.52;;;;;;;-0.94;58.27;100642.55;1713887;83;21330;-60
2021/03/07 04:13:28;;;;;;;7.95;3.27;;;;;;;-0.96;58.23;100637.29;1713508;83;21335;-59
2021/03/07 04:15:55;;;;;;;10.58;4.17;;;;;;;-0.96;58.30;100636.80;1713859;82;21913;-60
2021/03/07 04:18:26;;;;;;;10.53;4.17;;;;;;;-0.96;58.30;100624.70;1713965;83;21183;-61
2021/03/07 04:20:54;;;;;;;7.67;3.10;;;;;;;-0.94;58.25;100618.34;1713889;83;21357;-61
2021/03/07 04:23:21;;;;;;;7.80;3.75;;;;;;;-0.98;58.22;100610.52;1713993;83;21202;-62
2021/03/07 04:25:48;;;;;;;7.47;3.05;;;;;;;-0.98;58.35;100608.31;1713837;83;21857;-60
2021/03/07 04:28:16;;;;;;;12.13;4.12;;;;;;;-1.00;58.39;100604.89;1713836;83;21194;-60
2021/03/07 04:30:44;;;;;;;6.60;3.67;;;;;;;-0.99;58.40;100588.63;1689890;84;21325;-60
2021/03/07 04:33:11;;;;;;;8.48;3.67;;;;;;;-0.97;58.39;100597.44;1709070;83;21493;-61
2021/03/07 04:35:40;;;;;;;11.35;3.75;;;;;;;-0.92;58.35;100585.47;1709139;83;21292;-60
2021/03/07 04:38:07;;;;;;;9.18;3.52;;;;;;;-0.90;58.29;100580.82;1712324;83;21185;-60
2021/03/07 04:40:36;;;;;;;11.12;4.35;;;;;;;-0.90;58.31;100572.75;1712365;83;21166;-60
2021/03/07 04:43:04;;;;;;;8.80;4.10;;;;;;;-0.91;58.33;100571.90;1712443;83;21940;-62
2021/03/07 04:45:32;;;;;;;11.30;4.45;;;;;;;-0.88;58.28;100570.80;1712404;83;21217;-59
2021/03/07 04:47:59;;;;;;;12.43;4.92;;;;;;;-0.87;58.32;100573.86;1712350;83;21174;-61
2021/03/07 04:50:27;;;;;;;10.63;4.30;;;;;;;-0.87;58.34;100569.33;1712510;83;21437;-60
2021/03/07 04:52:55;;;;;;;10.80;4.78;;;;;;;-0.85;58.37;100567.38;1712288;83;21202;-59
2021/03/07 04:55:22;;;;;;;9.48;4.85;;;;;;;-0.83;58.35;100573.98;1712354;83;21452;-62
2021/03/07 04:57:50;;;;;;;10.00;4.67;;;;;;;-0.81;58.39;100555.89;1712551;83;21385;-61
2021/03/07 05:00:18;;;;;;;9.60;4.53;;;;;;;-0.80;58.43;100560.30;1712412;83;21241;-61
2021/03/07 05:02:46;;;;;;;15.30;4.50;;;;;;;-0.78;58.39;100552.47;1712369;83;21174;-60
2021/03/07 05:05:15;;;;;;;12.00;5.83;;;;;;;-0.77;58.36;100547.45;1712293;83;21455;-61
2021/03/07 05:07:42;;;;;;;9.38;4.65;;;;;;;-0.74;58.36;100555.77;1712407;83;21356;-61
2021/03/07 05:10:11;;;;;;;11.12;4.25;;;;;;;-0.72;58.36;100551.12;1712249;83;21361;-61
2021/03/07 05:12:38;;;;;;;11.90;5.53;;;;;;;-0.71;58.33;100541.59;1712325;83;21304;-60
2021/03/07 05:15:07;;;;;;;11.08;5.25;;;;;;;-0.69;58.33;100545.01;1712248;83;21243;-60
2021/03/07 05:17:36;;;;;;;9.50;5.05;;;;;;;-0.63;58.36;100546.88;1712239;83;21213;-61
2021/03/07 05:20:05;;;;;;;9.73;5.17;;;;;;;-0.60;58.36;100534.03;1712260;83;21325;-61
2021/03/07 05:22:33;;;;;;;14.43;6.95;;;;;;;-0.55;58.35;100536.35;1712314;83;21557;-60
2021/03/07 05:25:01;;;;;;;13.88;5.97;;;;;;;-0.54;58.29;100529.50;1712183;83;21328;-60
2021/03/07 05:27:28;;;;;;;12.05;5.42;;;;;;;-0.51;58.25;100522.53;1712220;83;21960;-61
2021/03/07 05:29:55;;;;;;;15.63;6.60;;;;;;;-0.47;58.29;100524.48;1712237;83;21242;-61
2021/03/07 05:32:23;;;;;;;12.60;5.00;;;;;;;-0.43;58.26;100515.17;1712415;82;21459;-60
2021/03/07 05:34:50;;;;;;;9.60;4.45;;;;;;;-0.41;58.20;100520.80;1741861;82;21459;-61
2021/03/07 05:37:18;;;;;;;9.88;4.55;;;;;;;-0.39;58.19;100522.88;1727340;82;21372;-61
2021/03/07 05:39:45;;;;;;;10.48;5.05;;;;;;;-0.40;58.22;100523.86;1716612;83;21165;-61
2021/03/07 05:42:13;;;;;;;10.18;5.25;;;;;;;-0.38;58.26;100525.08;1716680;83;21381;-61
2021/03/07 05:44:40;;;;;;;9.63;4.87;;;;;;;-0.34;58.28;100526.54;1716787;83;21149;-61
2021/03/07 05:47:07;;;;;;;12.35;5.65;;;;;;;-0.29;58.30;100512.70;1713922;83;21180;-61
2021/03/07 05:49:35;;;;;;;13.68;5.97;;;;;;;-0.27;58.15;100514.78;1690542;83;21205;-61
2021/03/07 05:52:03;;;;;;;14.00;6.10;;;;;;;-0.26;58.13;100508.41;1716859;82;21388;-61
2021/03/07 05:54:30;;;;;;;9.53;5.12;;;;;;;-0.26;58.15;100506.58;1716890;83;21184;-61
2021/03/07 05:56:58;;;;;;;11.93;5.70;;;;;;;-0.24;58.18;100507.80;1716784;83;21308;-61
2021/03/07 05:59:25;;;;;;;12.43;5.25;;;;;;;-0.18;58.13;100494.69;1716724;83;21503;-61
2021/03/07 06:01:52;;;;;;;11.57;5.92;;;;;;;-0.12;57.96;100488.79;1716713;82;21260;-60
2021/03/07 06:04:20;;;;;;;11.55;4.92;;;;;;;-0.11;57.85;100485.61;1716692;83;21252;-60
2021/03/07 06:06:48;;;;;;;13.45;5.83;;;;;;;-0.10;57.83;100492.70;1716856;83;21404;-61
2021/03/07 06:09:27;;;;;;;12.03;5.87;;;;;;;-0.08;57.78;100478.62;1716683;83;21196;-62
2021/03/07 06:11:55;;;;;;;12.68;6.00;;;;;;;-0.06;57.81;100480.69;1716814;83;21169;-59
2021/03/07 06:14:26;;;;;;;10.58;5.45;;;;;;;-0.01;57.78;100477.13;1716727;83;21591;-61
2021/03/07 06:17:10;;;;;;;10.43;5.12;;;;;;;0.06;57.68;100476.16;1716756;83;21845;-61
2021/03/07 06:20:00;;;;;;;15.10;5.60;;;;;;;0.10;57.54;100468.17;1716655;83;21202;-62
2021/03/07 06:22:28;;;;;;;11.18;5.28;;;;;;;0.12;57.49;100469.75;1716786;83;21167;-60
2021/03/07 06:24:56;;;;;;;14.03;5.62;;;;;;;0.17;57.41;100470.22;1716791;83;21860;-61
2021/03/07 06:27:24;;;;;;;13.38;6.33;;;;;;;0.22;57.26;100467.99;1716707;83;21157;-62
2021/03/07 06:30:10;;;;;;;11.35;5.33;;;;;;;0.23;57.22;100458.07;1716649;83;21872;-61
2021/03/07 06:32:43;;;;;;;11.63;5.53;;;;;;;0.27;57.02;100471.64;1716713;83;21145;-61
2021/03/07 06:35:12;;;;;;;13.22;4.85;;;;;;;0.27;56.97;100459.52;1716806;83;21142;-61
2021/03/07 06:37:58;;;;;;;14.23;6.25;;;;;;;0.29;57.06;100459.75;1729289;82;21426;-63
2021/03/07 06:40:31;;;;;;;12.53;5.92;;;;;;;0.30;57.08;100456.07;1738398;82;21425;-61
2021/03/07 06:43:00;;;;;;;12.33;6.08;;;;;;;0.34;56.92;100451.77;1738455;82;21155;-62
2021/03/07 06:45:39;;;;;;;13.00;6.00;;;;;;;0.39;56.96;100453.08;1738474;82;21210;-61
2021/03/07 06:48:08;;;;;;;10.53;4.62;;;;;;;0.46;56.89;100442.62;1738481;82;21178;-61
2021/03/07 06:50:47;;;;;;;18.73;7.75;;;;;;;0.55;56.65;100439.14;1738433;82;21206;-61
2021/03/07 06:53:14;;;;;;;15.48;5.60;;;;;;;0.57;56.51;100440.71;1728145;82;21886;-62
2021/03/07 06:55:43;;;;;;;14.25;6.50;;;;;;;0.61;56.41;100439.46;1738508;82;21515;-62
2021/03/07 06:58:15;;;;;;;13.45;5.65;;;;;;;0.66;56.37;100428.30;1738545;82;21437;-61
2021/03/07 07:00:43;;;;;;;12.50;6.25;;;;;;;0.69;56.30;100430.73;1738509;82;21193;-62
2021/03/07 07:03:12;;;;;;;11.95;5.80;;;;;;;0.76;56.20;100429.21;1738430;82;21178;-61
2021/03/07 07:05:44;;;;;;;14.23;6.22;;;;;;;0.85;56.03;100420.81;1738464;82;21142;-62
2021/03/07 07:08:13;;;;;;;13.38;6.30;;;;;;;0.90;55.89;100422.11;1738451;82;21389;-61
2021/03/07 07:10:56;;;;;;;17.55;5.80;;;;;;;0.95;55.57;100410.42;1738522;82;21453;-60
2021/03/07 07:13:25;;;;;;;14.80;6.15;;;;;;;0.98;55.53;100398.50;1738623;82;21614;-61
2021/03/07 07:16:09;;;;;;;17.07;6.55;;;;;;;1.06;55.37;100405.91;1738530;82;21138;-61
2021/03/07 07:18:39;;;;;;;11.20;5.87;;;;;;;1.09;55.41;100399.74;1738477;82;21417;-60
2021/03/07 07:21:10;;;;;;;27.00;6.53;;;;;;;1.17;55.29;100396.36;1738622;82;21202;-60
2021/03/07 07:23:37;;;;;;;13.38;6.58;;;;;;;1.25;55.18;100389.78;1738493;82;21924;-60
2021/03/07 07:26:05;;;;;;;11.85;6.00;;;;;;;1.33;55.03;100389.97;1738437;82;21838;-60
2021/03/07 07:28:33;;;;;;;12.43;5.33;;;;;;;1.38;54.97;100382.80;1738528;82;21438;-62
2021/03/07 07:31:35;;;;;;;14.50;6.17;;;;;;;1.43;54.89;100391.34;1738510;82;21898;-60
2021/03/07 07:34:11;;;;;;;11.48;5.12;;;;;;;1.47;54.70;100377.92;1738569;82;21139;-61
2021/03/07 07:37:03;;;;;;;10.60;4.85;;;;;;;1.45;54.77;100374.01;1737983;82;21144;-59
2021/03/07 07:39:34;;;;;;;10.35;5.15;;;;;;;1.48;54.88;100375.08;1705422;83;21424;-62
2021/03/07 07:42:26;;;;;;;14.23;6.42;;;;;;;1.52;55.01;100378.34;1716615;83;21441;-61
2021/03/07 07:45:00;;;;;;;14.15;5.65;;;;;;;1.59;54.69;100359.23;1716720;83;21161;-60
2021/03/07 07:47:51;;;;;;;15.78;6.50;;;;;;;1.63;54.70;100351.21;1716690;83;21361;-63
2021/03/07 07:50:34;;;;;;;13.18;5.03;;;;;;;1.70;54.73;100342.05;1716717;83;21316;-62
2021/03/07 07:53:25;;;;;;;11.73;5.33;;;;;;;1.78;54.42;100367.84;1716825;83;21356;-63
2021/03/07 07:55:56;;;;;;;17.42;5.72;;;;;;;1.83;54.27;100346.66;1716842;83;21520;-61
2021/03/07 07:58:43;;;;;;;12.47;5.45;;;;;;;1.93;54.18;100335.84;1716585;83;21200;-61
2021/03/07 08:01:12;;;;;;;13.75;5.70;;;;;;;2.01;53.88;100330.11;1682293;84;21303;-61
2021/03/07 08:03:45;;;;;;;12.95;5.62;;;;;;;2.08;53.52;100319.07;1664020;86;21882;-61
2021/03/07 08:06:30;;;;;;;11.22;4.65;;;;;;;2.11;53.31;100322.83;1682415;84;21381;-62
2021/03/07 08:08:59;;;;;;;10.75;5.00;;;;;;;2.11;53.24;100318.78;1679360;85;21443;-59
2021/03/07 08:11:29;;;;;;;9.15;4.83;;;;;;;2.14;53.33;100324.39;1682581;84;21158;-61
2021/03/07 08:13:59;;;;;;;11.30;4.90;;;;;;;2.18;53.20;100321.75;1682453;85;21412;-60
2021/03/07 08:16:43;;;;;;;9.88;5.08;;;;;;;2.19;52.75;100316.70;1682066;84;21400;-61
2021/03/07 08:19:19;;;;;;;9.68;4.75;;;;;;;2.12;52.79;100316.43;1682523;84;21442;-60
2021/03/07 08:22:03;;;;;;;10.13;5.30;;;;;;;2.06;52.76;100299.95;1657291;85;21269;-61
2021/03/07 08:24:53;;;;;;;11.25;5.37;;;;;;;1.99;53.09;100313.19;1682056;84;21167;-59
2021/03/07 08:27:40;;;;;;;12.07;4.75;;;;;;;1.98;53.06;100303.38;1682554;85;21174;-61
2021/03/07 08:30:10;;;;;;;14.30;5.45;;;;;;;1.94;53.08;100289.77;1660531;83;21209;-61
2021/03/07 08:32:42;;;;;;;12.80;4.92;;;;;;;1.94;53.41;100284.86;1669174;83;21394;-61
2021/03/07 08:35:20;;;;;;;11.20;5.08;;;;;;;1.99;53.18;100286.66;1668408;84;21214;-61
2021/03/07 08:38:15;;;;;;;18.07;5.92;;;;;;;1.97;53.33;100285.46;1674174;84;21468;-62
2021/03/07 08:40:56;;;;;;;11.68;5.50;;;;;;;1.99;53.48;100268.61;1683030;85;21198;-62
2021/03/07 08:43:30;;;;;;;8.53;4.05;;;;;;;2.02;53.29;100279.62;1683093;85;21237;-61
2021/03/07 08:46:04;;;;;;;15.20;5.92;;;;;;;2.05;53.45;100282.88;1683170;85;21413;-61
2021/03/07 08:48:32;;;;;;;14.18;5.30;;;;;;;2.10;53.38;100283.30;1683007;85;21485;-61
2021/03/07 08:51:01;;;;;;;10.25;4.90;;;;;;;2.14;53.23;100291.95;1683081;85;21277;-60
2021/03/07 08:53:31;;;;;;;10.25;4.55;;;;;;;2.13;53.25;100286.20;1690427;84;21156;-61
2021/03/07 08:55:59;;;;;;;25.82;12.45;;;;;;;2.14;53.24;100286.06;1688336;83;21545;-61
2021/03/07 08:58:26;;;;;;;10.20;5.40;;;;;;;2.18;53.28;100260.44;1686927;85;21165;-62
2021/03/07 09:00:56;;;;;;;13.25;5.17;;;;;;;2.26;53.22;100264.25;1679333;84;21252;-60
2021/03/07 09:03:25;;;;;;;11.93;5.33;;;;;;;2.30;53.07;100271.92;1716119;83;21151;-61
2021/03/07 09:05:53;;;;;;;14.53;5.20;;;;;;;2.28;53.18;100269.02;1698524;84;21256;-62
2021/03/07 09:08:24;;;;;;;12.07;5.10;;;;;;;2.31;53.25;100251.14;1716207;83;21214;-62
2021/03/07 09:10:59;;;;;;;11.53;4.95;;;;;;;2.34;53.22;100254.41;1698518;84;21190;-60
2021/03/07 09:13:28;;;;;;;13.15;5.12;;;;;;;2.37;53.22;100260.02;1698793;83;21183;-61
2021/03/07 09:15:59;;;;;;;10.80;4.85;;;;;;;2.41;53.34;100258.72;1716364;83;21159;-62
2021/03/07 09:18:30;;;;;;;10.60;5.40;;;;;;;2.45;53.33;100249.30;1701789;83;21151;-62
2021/03/07 09:21:02;;;;;;;8.98;5.00;;;;;;;2.49;53.12;100260.17;1693036;83;21099;-62
2021/03/07 09:23:36;;;;;;;14.78;5.45;;;;;;;2.47;53.14;100252.20;1698655;84;21166;-63
2021/03/07 09:29:25;;;;;;;12.73;4.90;;;;;;;2.57;53.12;100236.44;1807688;77;22410;-62
2021/03/07 09:31:53;;;;;;;13.43;5.37;;;;;;;2.53;53.16;100249.41;1752829;82;21139;-62
2021/03/07 09:34:26;;;;;;;11.85;5.53;;;;;;;2.56;53.02;100226.12;1773843;79;21162;-64
2021/03/07 09:36:53;;;;;;;13.18;5.97;;;;;;;2.59;53.03;100230.37;1783282;79;21304;-61
2021/03/07 09:39:21;;;;;;;10.10;4.55;;;;;;;2.62;53.16;100225.55;1783920;80;21555;-63
2021/03/07 09:41:51;;;;;;;8.70;4.47;;;;;;;2.68;53.08;100220.88;1763787;80;21845;-63
2021/03/07 09:44:22;;;;;;;10.13;4.62;;;;;;;2.72;52.98;100242.58;1782122;80;21908;-63
2021/03/07 09:46:51;;;;;;;9.45;4.25;;;;;;;2.72;52.79;100219.58;1718084;83;21159;-62
2021/03/07 09:49:23;;;;;;;10.65;5.00;;;;;;;2.67;52.78;100225.09;1718073;83;21457;-61
2021/03/07 09:51:52;;;;;;;10.65;4.87;;;;;;;2.67;52.92;100229.16;1718068;83;21349;-60
2021/03/07 09:54:20;;;;;;;11.05;4.67;;;;;;;2.68;52.95;100233.56;1718096;83;21463;-63
2021/03/07 09:56:48;;;;;;;12.15;5.30;;;;;;;2.70;52.95;100226.14;1718177;83;21404;-63
2021/03/07 09:59:17;;;;;;;9.50;4.65;;;;;;;2.70;52.91;100232.41;1681285;83;21394;-63
2021/03/07 10:01:55;;;;;;;9.35;4.90;;;;;;;2.69;52.76;100231.20;1706194;84;21157;-65
2021/03/07 10:04:45;;;;;;;10.48;4.00;;;;;;;2.59;52.77;100230.37;1703369;83;21161;-63
2021/03/07 10:07:18;;;;;;;9.10;4.55;;;;;;;2.49;53.02;100241.24;1707825;82;21373;-63
2021/03/07 10:10:10;;;;;;;10.15;4.72;;;;;;;2.41;53.27;100224.91;1722038;83;21157;-61
2021/03/07 10:12:55;;;;;;;11.85;4.67;;;;;;;2.39;53.52;100229.63;1721906;83;21306;-62
2021/03/07 10:15:30;;;;;;;12.40;4.75;;;;;;;2.41;53.70;100219.51;1721942;83;21168;-62
2021/03/07 10:18:05;;;;;;;11.50;5.47;;;;;;;2.47;53.58;100210.80;1721403;82;21459;-65
2021/03/07 10:20:39;;;;;;;12.75;5.60;;;;;;;2.47;53.65;100203.53;1719428;82;21156;-64
2021/03/07 10:23:07;;;;;;;10.78;5.10;;;;;;;2.52;53.67;100213.91;1721632;83;21784;-65
2021/03/07 10:25:38;;;;;;;11.90;5.17;;;;;;;2.58;53.47;100200.28;1701313;83;21203;-63
2021/03/07 10:28:10;;;;;;;10.32;4.95;;;;;;;2.58;53.44;100214.65;1689891;84;21145;-63
2021/03/07 10:30:42;;;;;;;13.43;5.15;;;;;;;2.61;53.53;100202.20;1730513;81;21399;-63
2021/03/07 10:33:28;;;;;;;9.83;4.28;;;;;;;2.64;53.39;100198.34;1728128;83;21190;-62
2021/03/07 10:36:04;;;;;;;8.28;4.55;;;;;;;2.66;53.43;100185.02;1718110;83;21142;-62
2021/03/07 10:38:44;;;;;;;10.58;4.80;;;;;;;2.71;53.44;100196.23;1718031;82;21365;-63
2021/03/07 10:41:31;;;;;;;9.88;5.22;;;;;;;2.75;53.36;100180.05;1717530;82;21134;-62
2021/03/07 10:44:00;;;;;;;9.53;4.90;;;;;;;2.78;53.18;100173.48;1722388;82;21139;-61
2021/03/07 10:46:37;;;;;;;8.83;4.35;;;;;;;2.81;53.32;100163.70;1722149;83;21146;-60
2021/03/07 10:49:09;;;;;;;9.10;4.67;;;;;;;2.83;53.00;100173.38;1719978;82;21138;-63
2021/03/07 10:51:39;;;;;;;11.57;4.72;;;;;;;2.75;53.17;100163.82;1722197;83;21167;-62
2021/03/07 10:54:08;;;;;;;10.30;4.92;;;;;;;2.72;53.38;100157.36;1671447;83;21143;-63
2021/03/07 10:56:45;;;;;;;10.10;4.95;;;;;;;2.73;53.44;100160.42;1738572;80;21573;-62
2021/03/07 10:59:10;;;;;;;8.40;4.50;;;;;;;2.80;53.33;100168.77;1746131;82;21107;-64
2021/03/07 11:01:41;;;;;;;10.00;4.80;;;;;;;2.80;53.22;100149.33;1748994;82;21121;-65
2021/03/07 11:04:10;;;;;;;9.28;4.33;;;;;;;2.78;53.26;100140.52;1742261;82;21148;-62
2021/03/07 11:06:37;;;;;;;10.00;4.58;;;;;;;2.79;53.43;100134.09;1721985;82;21567;-64
2021/03/07 11:09:05;;;;;;;7.97;4.53;;;;;;;2.83;53.48;100136.84;1722228;82;21597;-64
2021/03/07 11:11:34;;;;;;;8.90;4.78;;;;;;;2.85;53.45;100137.54;1722195;83;21147;-66
2021/03/07 11:14:02;;;;;;;9.25;4.03;;;;;;;2.85;53.58;100130.77;1749694;82;21110;-62
2021/03/07 11:16:29;;;;;;;7.53;4.60;;;;;;;2.86;53.58;100114.89;1754930;82;21623;-65
2021/03/07 11:19:01;;;;;;;9.48;4.37;;;;;;;2.90;53.62;100129.46;1750939;82;21110;-67
2021/03/07 11:21:29;;;;;;;7.85;4.35;;;;;;;2.95;53.64;100123.08;1755048;82;21167;-66
2021/03/07 11:23:56;;;;;;;8.83;4.55;;;;;;;2.97;53.62;100118.36;1754828;80;21125;-63
2021/03/07 11:27:29;;;;;;;7.83;3.47;;;;;;;3.07;53.45;100109.65;1823552;77;22121;-70
2021/03/07 11:29:56;;;;;;;10.80;4.58;;;;;;;2.99;53.48;100112.29;1739495;82;21408;-64
2021/03/07 11:32:24;;;;;;;9.98;4.28;;;;;;;3.04;53.55;100110.81;1763092;80;21574;-64
2021/03/07 11:34:52;;;;;;;8.58;5.00;;;;;;;3.07;53.34;100115.06;1722920;82;21901;-66
2021/03/07 11:37:19;;;;;;;8.85;4.40;;;;;;;3.06;53.37;100106.59;1735394;82;21362;-63
2021/03/07 11:39:47;;;;;;;11.05;4.40;;;;;;;3.04;53.32;100102.70;1746703;82;21820;-62
2021/03/07 11:42:14;;;;;;;10.32;4.10;;;;;;;3.02;53.23;100103.86;1746479;82;21425;-62
2021/03/07 11:44:42;;;;;;;8.70;4.08;;;;;;;3.02;53.22;100084.91;1746492;82;21276;-64
2021/03/07 11:47:09;;;;;;;9.63;4.58;;;;;;;3.04;53.14;100092.38;1743219;82;21817;-66